Time;durP1;ratioP1;P1;durP2;ratioP2;P2;SDS_P1;SDS_P2;PMS_P1;PMS_P2;Temp;Humidity;BMP_temperature;BMP_pressure;BME280_temperature;BME280_humidity;BME280_pressure;Samples;Min_cycle;Max_cycle;Signal;HPM_P1;HPM_P2
2024/02/15 00:01:04;;;;;;;12.60;7.00;;;;;;;11.73;67.56;101237.19;109339;1255;71594;-59
2024/02/15 00:03:31;;;;;;;11.70;6.70;;;;;;;11.70;67.63;101235.63;109378;1254;70472;-60
2024/02/15 00:05:59;;;;;;;11.90;6.20;;;;;;;11.65;67.55;101237.93;109359;1253;61760;-61
2024/02/15 00:08:29;;;;;;;10.60;5.80;;;;;;;11.57;67.04;101236.73;109426;1253;58918;-60
2024/02/15 00:10:57;;;;;;;10.70;6.10;;;;;;;11.50;67.02;101237.98;109378;1253;74653;-60
2024/02/15 00:13:24;;;;;;;15.00;6.60;;;;;;;11.43;67.09;101236.09;109161;1251;73329;-59
2024/02/15 00:15:52;;;;;;;12.90;6.60;;;;;;;11.36;66.95;101238.05;109463;1252;72754;-61
2024/02/15 00:18:20;;;;;;;11.70;7.20;;;;;;;11.29;66.89;101238.59;108998;1253;60164;-61
2024/02/15 00:20:48;;;;;;;11.80;6.20;;;;;;;11.21;66.78;101241.08;109518;1252;60192;-61
2024/02/15 00:23:16;;;;;;;12.30;6.70;;;;;;;11.15;67.02;101242.49;109490;1253;74737;-62
2024/02/15 00:25:44;;;;;;;12.30;6.80;;;;;;;11.12;67.03;101246.20;109263;1253;72448;-61
2024/02/15 00:28:15;;;;;;;12.10;7.60;;;;;;;11.10;67.14;101241.98;109454;1251;72726;-60
2024/02/15 00:30:42;;;;;;;11.10;6.30;;;;;;;11.09;67.08;101247.60;109458;1253;60084;-59
2024/02/15 00:33:10;;;;;;;12.00;6.70;;;;;;;11.07;67.29;101242.34;109498;1251;58960;-59
2024/02/15 00:35:38;;;;;;;13.10;7.20;;;;;;;11.05;67.24;101247.96;109393;1251;73406;-59
2024/02/15 00:38:07;;;;;;;14.60;8.00;;;;;;;10.99;67.16;101242.17;109599;1251;72972;-58
2024/02/15 00:40:37;;;;;;;12.30;6.70;;;;;;;10.93;67.17;101243.06;109462;1253;72762;-59
2024/02/15 00:43:05;;;;;;;12.30;7.00;;;;;;;10.89;67.25;101241.48;109221;1257;60157;-59
2024/02/15 00:45:32;;;;;;;12.70;7.60;;;;;;;10.87;67.36;101242.20;109152;1254;59003;-60
2024/02/15 00:48:00;;;;;;;10.10;6.80;;;;;;;10.84;67.35;101239.74;109237;1253;73667;-60
2024/02/15 00:50:28;;;;;;;11.00;7.00;;;;;;;10.82;67.32;101236.93;109516;1252;72837;-60
2024/02/15 00:52:56;;;;;;;12.60;7.10;;;;;;;10.79;67.52;101232.37;109453;1253;71677;-60
2024/02/15 00:55:23;;;;;;;12.60;7.10;;;;;;;10.77;67.33;101231.50;109069;1257;60467;-61
2024/02/15 00:57:51;;;;;;;14.40;7.60;;;;;;;10.76;67.52;101229.39;109074;1252;60096;-61
2024/02/15 01:00:19;;;;;;;12.20;6.50;;;;;;;10.74;67.44;101229.05;109535;1252;73860;-61
2024/02/15 01:02:47;;;;;;;12.60;6.90;;;;;;;10.72;67.45;101227.83;109529;1253;72823;-61
2024/02/15 01:05:18;;;;;;;11.20;6.60;;;;;;;10.72;67.34;101228.88;109182;1252;72744;-61
2024/02/15 01:07:48;;;;;;;12.00;7.00;;;;;;;10.73;67.36;101229.58;109141;1253;59013;-61
2024/02/15 01:10:17;;;;;;;13.70;7.50;;;;;;;10.74;67.24;101227.64;109458;1253;59041;-62
2024/02/15 01:12:44;;;;;;;14.70;7.80;;;;;;;10.71;67.42;101226.77;109411;1253;74776;-62
2024/02/15 01:15:12;;;;;;;12.90;7.20;;;;;;;10.70;67.40;101225.71;109459;1253;72903;-61
2024/02/15 01:17:40;;;;;;;13.50;7.70;;;;;;;10.70;67.43;101228.34;109326;1251;72673;-61
2024/02/15 01:20:08;;;;;;;12.60;7.70;;;;;;;10.69;67.34;101230.81;109491;1251;60096;-60
2024/02/15 01:22:36;;;;;;;16.90;8.40;;;;;;;10.65;67.20;101225.02;109156;1251;59465;-60
2024/02/15 01:25:04;;;;;;;11.70;7.60;;;;;;;10.63;67.33;101223.44;109526;1251;75170;-60
2024/02/15 01:27:31;;;;;;;12.60;7.00;;;;;;;10.63;67.29;101232.91;109354;1251;72600;-60
2024/02/15 01:30:00;;;;;;;13.70;8.20;;;;;;;10.61;67.25;101235.02;109529;1251;71444;-60
2024/02/15 01:32:28;;;;;;;12.00;7.90;;;;;;;10.57;67.42;101238.35;109507;1251;60471;-60
2024/02/15 01:34:55;;;;;;;15.80;8.60;;;;;;;10.53;67.48;101232.56;109551;1253;59042;-60
2024/02/15 01:37:23;;;;;;;13.70;8.00;;;;;;;10.50;67.44;101229.77;109526;1251;74761;-60
2024/02/15 01:39:51;;;;;;;12.60;8.00;;;;;;;10.50;67.55;101230.11;109555;1251;71651;-60
2024/02/15 01:42:18;;;;;;;15.00;8.30;;;;;;;10.52;67.55;101231.51;109107;1252;72753;-60
2024/02/15 01:44:49;;;;;;;15.20;8.30;;;;;;;10.52;67.59;101232.56;109463;1253;59061;-59
2024/02/15 01:47:19;;;;;;;15.80;8.30;;;;;;;10.50;67.55;101233.44;109509;1253;58995;-59
2024/02/15 01:49:48;;;;;;;14.00;8.40;;;;;;;10.50;67.75;101231.52;109379;1253;74653;-60
2024/02/15 01:52:17;;;;;;;12.90;8.60;;;;;;;10.50;67.74;101230.98;109469;1253;72248;-60
2024/02/15 01:54:45;;;;;;;13.00;8.00;;;;;;;10.50;67.61;101229.23;109518;1251;71426;-60
2024/02/15 01:57:12;;;;;;;13.50;8.60;;;;;;;10.51;67.58;101233.27;109518;1253;59106;-60
2024/02/15 01:59:40;;;;;;;12.70;7.60;;;;;;;10.51;67.60;101236.23;109508;1251;60415;-60
2024/02/15 02:02:08;;;;;;;14.20;8.20;;;;;;;10.50;67.62;101237.48;109521;1251;73446;-60
2024/02/15 02:04:37;;;;;;;13.20;8.00;;;;;;;10.49;67.50;101237.81;109549;1251;72802;-60
2024/02/15 02:07:05;;;;;;;15.00;9.10;;;;;;;10.49;67.66;101237.47;109518;1251;73174;-58
2024/02/15 02:09:33;;;;;;;16.50;8.50;;;;;;;10.45;67.57;101234.84;109396;1251;59615;-57
2024/02/15 02:12:00;;;;;;;11.80;7.70;;;;;;;10.44;67.58;101239.41;109551;1251;59362;-57
2024/02/15 02:14:28;;;;;;;12.00;7.40;;;;;;;10.43;67.52;101245.02;109527;1251;74911;-60
2024/02/15 02:16:56;;;;;;;14.10;8.30;;;;;;;10.40;67.43;101246.76;109284;1251;72976;-59
2024/02/15 02:19:23;;;;;;;16.50;8.70;;;;;;;10.38;67.49;101251.49;109513;1251;72704;-59
2024/02/15 02:21:51;;;;;;;16.40;9.10;;;;;;;10.38;67.50;101246.94;109315;1251;60458;-59
2024/02/15 02:24:21;;;;;;;15.60;9.30;;;;;;;10.38;67.46;101248.17;109489;1251;60054;-59
2024/02/15 02:26:49;;;;;;;14.50;7.60;;;;;;;10.36;67.40;101249.92;109550;1251;75119;-57
2024/02/15 02:29:17;;;;;;;14.50;7.90;;;;;;;10.35;67.49;101245.17;109518;1251;72119;-58
2024/02/15 02:31:45;;;;;;;12.80;8.30;;;;;;;10.36;67.36;101250.63;109284;1253;71682;-56
2024/02/15 02:34:14;;;;;;;14.50;8.60;;;;;;;10.34;67.28;101249.91;109503;1252;59034;-58
2024/02/15 02:36:47;;;;;;;13.60;8.00;;;;;;;10.31;67.39;101246.19;109544;1253;58895;-63
2024/02/15 02:39:16;;;;;;;14.40;8.50;;;;;;;10.29;67.40;101243.74;109502;1253;73409;-62
2024/02/15 02:41:44;;;;;;;13.20;7.70;;;;;;;10.29;67.43;101253.21;109136;1254;72697;-63
2024/02/15 02:44:12;;;;;;;12.00;7.20;;;;;;;10.27;67.37;101252.15;109496;1254;72693;-62
2024/02/15 02:46:41;;;;;;;11.30;6.70;;;;;;;10.25;67.40;101256.71;109524;1253;59037;-63
2024/02/15 02:49:09;;;;;;;12.00;6.90;;;;;;;10.23;67.21;101255.30;109542;1252;59172;-63
2024/02/15 02:51:37;;;;;;;10.30;6.90;;;;;;;10.21;67.32;101261.98;109564;1253;72437;-63
2024/02/15 02:54:06;;;;;;;10.60;7.00;;;;;;;10.19;67.32;101257.23;109437;1253;72816;-62
2024/02/15 02:56:35;;;;;;;13.10;7.40;;;;;;;10.19;67.33;101259.69;109500;1252;72748;-63
2024/02/15 02:59:04;;;;;;;12.20;7.40;;;;;;;10.17;67.38;101262.48;109453;1253;60112;-62
2024/02/15 03:01:32;;;;;;;12.10;7.80;;;;;;;10.16;67.41;101254.59;109447;1251;58921;-62
2024/02/15 03:03:59;;;;;;;10.50;7.50;;;;;;;10.14;67.34;101254.23;109552;1251;74696;-62
2024/02/15 03:06:27;;;;;;;11.20;6.90;;;;;;;10.13;67.36;101255.45;109585;1251;72848;-62
2024/02/15 03:08:57;;;;;;;10.60;6.90;;;;;;;10.11;67.33;101250.38;109329;1251;71647;-62
2024/02/15 03:11:25;;;;;;;13.00;7.60;;;;;;;10.08;67.36;101250.71;109492;1251;60380;-62
2024/02/15 03:13:53;;;;;;;12.10;7.70;;;;;;;10.07;67.52;101248.79;109574;1251;58963;-62
2024/02/15 03:16:24;;;;;;;13.30;7.30;;;;;;;10.08;67.51;101246.86;109114;1251;73361;-62
2024/02/15 03:18:52;;;;;;;11.90;7.40;;;;;;;10.10;67.55;101238.64;109517;1253;71826;-62
2024/02/15 03:21:20;;;;;;;10.90;6.70;;;;;;;10.13;67.77;101245.13;109525;1251;71441;-62
2024/02/15 03:23:50;;;;;;;8.70;6.20;;;;;;;10.20;67.99;101250.58;109519;1251;58967;-62
2024/02/15 03:26:30;;;;;;;11.10;7.00;;;;;;;10.26;67.85;101243.55;109395;1251;60129;-62
2024/02/15 03:28:58;;;;;;;9.90;6.50;;;;;;;10.28;67.88;101244.80;109580;1251;74880;-62
2024/02/15 03:31:26;;;;;;;13.40;7.20;;;;;;;10.33;68.16;101245.34;109358;1250;72833;-62
2024/02/15 03:33:54;;;;;;;9.80;6.10;;;;;;;10.40;68.08;101241.49;109513;1250;72703;-62
2024/02/15 03:36:23;;;;;;;10.90;6.50;;;;;;;10.45;67.87;101239.92;109333;1251;60092;-59
2024/02/15 03:38:52;;;;;;;12.40;6.60;;;;;;;10.47;67.83;101241.68;109553;1251;58862;-59
2024/02/15 03:41:20;;;;;;;11.70;7.20;;;;;;;10.47;67.84;101238.34;109234;1251;73487;-59
2024/02/15 03:43:48;;;;;;;10.30;6.10;;;;;;;10.48;67.78;101243.43;109560;1251;72677;-60
2024/02/15 03:46:16;;;;;;;9.70;6.00;;;;;;;10.49;67.67;101237.83;109526;1251;72852;-62
2024/02/15 03:48:44;;;;;;;10.30;7.10;;;;;;;10.48;67.49;101236.42;109504;1251;61763;-62
2024/02/15 03:51:16;;;;;;;12.20;7.40;;;;;;;10.46;67.36;101239.23;109094;1251;60018;-62
2024/02/15 03:53:44;;;;;;;10.40;6.80;;;;;;;10.44;67.36;101239.23;109482;1251;73446;-62
2024/02/15 03:56:13;;;;;;;10.80;6.80;;;;;;;10.42;67.47;101242.73;109495;1251;72744;-62
2024/02/15 03:58:40;;;;;;;11.10;6.80;;;;;;;10.41;67.20;101242.20;109125;1251;71368;-62
2024/02/15 04:01:09;;;;;;;10.80;6.50;;;;;;;10.40;67.32;101239.23;109541;1250;59438;-62
2024/02/15 04:03:37;;;;;;;12.50;6.90;;;;;;;10.41;67.48;101233.77;109553;1250;58950;-61
2024/02/15 04:06:05;;;;;;;8.90;6.50;;;;;;;10.45;67.89;101234.84;109536;1251;74243;-61
2024/02/15 04:08:33;;;;;;;11.00;6.80;;;;;;;10.52;67.80;101239.05;109372;1250;71864;-64
2024/02/15 04:11:01;;;;;;;12.10;7.00;;;;;;;10.55;67.74;101246.42;109473;1251;72745;-63
2024/02/15 04:13:28;;;;;;;13.10;7.70;;;;;;;10.59;68.00;101249.23;109381;1256;58939;-62
2024/02/15 04:15:56;;;;;;;10.00;6.30;;;;;;;10.66;67.94;101254.49;109534;1251;60132;-62
2024/02/15 04:18:24;;;;;;;12.50;6.60;;;;;;;10.67;67.81;101260.29;109530;1251;75146;-63
2024/02/15 04:20:52;;;;;;;11.30;7.10;;;;;;;10.70;67.80;101264.67;109523;1251;72828;-63
2024/02/15 04:23:21;;;;;;;11.50;6.60;;;;;;;10.71;67.77;101267.11;109531;1251;71455;-63
2024/02/15 04:25:51;;;;;;;9.60;5.90;;;;;;;10.71;67.74;101272.55;109495;1251;60135;-62
2024/02/15 04:28:18;;;;;;;11.20;6.50;;;;;;;10.72;67.70;101271.70;109575;1251;58892;-61
2024/02/15 04:30:48;;;;;;;9.80;6.00;;;;;;;10.75;67.89;101267.65;109518;1251;74796;-61
2024/02/15 04:33:16;;;;;;;10.90;6.40;;;;;;;10.79;67.95;101270.80;109567;1250;72813;-62
2024/02/15 04:35:48;;;;;;;11.60;6.90;;;;;;;10.82;67.95;101268.70;109525;1251;71419;-61
2024/02/15 04:38:19;;;;;;;10.50;6.60;;;;;;;10.84;67.89;101276.42;109323;1251;60512;-62
2024/02/15 04:40:47;;;;;;;9.50;6.20;;;;;;;10.83;67.40;101288.70;109215;1251;60123;-62
2024/02/15 04:43:15;;;;;;;10.80;7.50;;;;;;;10.78;67.32;101286.42;109434;1251;73505;-61
2024/02/15 04:45:43;;;;;;;9.60;6.40;;;;;;;10.74;67.15;101289.93;109468;1251;72830;-61
2024/02/15 04:48:13;;;;;;;11.40;6.50;;;;;;;10.72;67.29;101291.69;109488;1251;72827;-61
2024/02/15 04:50:44;;;;;;;9.70;6.60;;;;;;;10.73;67.37;101291.16;109543;1251;60105;-60
2024/02/15 04:53:12;;;;;;;10.70;6.70;;;;;;;10.73;67.36;101299.24;109555;1251;58897;-65
2024/02/15 04:55:40;;;;;;;14.20;7.80;;;;;;;10.72;67.39;101299.93;109547;1251;73416;-63
2024/02/15 04:58:10;;;;;;;10.20;6.90;;;;;;;10.70;67.25;101301.52;109533;1253;72913;-61
2024/02/15 05:00:38;;;;;;;11.50;6.60;;;;;;;10.68;67.22;101295.72;109354;1251;71528;-62
2024/02/15 05:03:07;;;;;;;12.60;6.80;;;;;;;10.68;67.21;101298.71;109366;1251;59117;-61
2024/02/15 05:05:35;;;;;;;8.20;5.80;;;;;;;10.68;67.47;101303.27;109498;1251;60070;-62
2024/02/15 05:08:03;;;;;;;9.70;6.40;;;;;;;10.72;67.69;101305.19;109489;1251;74634;-60
2024/02/15 05:10:31;;;;;;;9.10;5.90;;;;;;;10.77;67.69;101309.06;109544;1250;72820;-59
2024/02/15 05:13:01;;;;;;;11.20;6.50;;;;;;;10.81;67.74;101310.83;109545;1251;71462;-60
2024/02/15 05:15:28;;;;;;;12.30;7.00;;;;;;;10.83;67.74;101309.94;109499;1251;60205;-59
2024/02/15 05:17:56;;;;;;;8.60;6.30;;;;;;;10.83;67.43;101316.60;109537;1251;59092;-60
2024/02/15 05:20:25;;;;;;;10.20;6.40;;;;;;;10.82;67.25;101317.31;109530;1251;73299;-59
2024/02/15 05:22:53;;;;;;;9.40;6.10;;;;;;;10.81;67.46;101317.67;109539;1250;71687;-60
2024/02/15 05:25:26;;;;;;;9.70;6.70;;;;;;;10.83;67.37;101321.88;109567;1251;72070;-60
2024/02/15 05:27:54;;;;;;;9.10;6.80;;;;;;;10.82;67.26;101322.05;109504;1251;59720;-60
2024/02/15 05:30:25;;;;;;;8.20;6.20;;;;;;;10.81;67.21;101327.85;109261;1250;59424;-58
2024/02/15 05:32:53;;;;;;;9.20;7.10;;;;;;;10.81;67.31;101327.85;109537;1251;73413;-58
2024/02/15 05:35:22;;;;;;;9.00;6.30;;;;;;;10.82;67.34;101331.89;109245;1250;71478;-58
2024/02/15 05:37:52;;;;;;;9.10;7.00;;;;;;;10.84;67.28;101339.96;109503;1251;72932;-57
2024/02/15 05:40:20;;;;;;;8.70;6.20;;;;;;;10.85;67.09;101339.08;109503;1252;60227;-58
2024/02/15 05:42:54;;;;;;;7.20;5.90;;;;;;;10.83;67.19;101345.21;109564;1250;58946;-58
2024/02/15 05:45:24;;;;;;;9.20;5.90;;;;;;;10.83;67.34;101343.46;109527;1251;74699;-59
2024/02/15 05:47:54;;;;;;;9.70;6.20;;;;;;;10.85;67.34;101351.89;109581;1251;72827;-59
2024/02/15 05:50:23;;;;;;;8.50;6.10;;;;;;;10.86;67.11;101352.23;109555;1250;71420;-60
2024/02/15 05:52:54;;;;;;;9.10;6.40;;;;;;;10.86;67.09;101356.45;109498;1251;60144;-57
2024/02/15 05:55:22;;;;;;;8.10;5.80;;;;;;;10.86;67.11;101358.20;109518;1251;60079;-59
2024/02/15 05:57:50;;;;;;;7.70;5.60;;;;;;;10.87;67.10;101357.33;109543;1251;74823;-58
2024/02/15 06:00:18;;;;;;;8.20;5.60;;;;;;;10.88;67.17;101365.05;109532;1253;71571;-61
2024/02/15 06:02:49;;;;;;;9.50;5.40;;;;;;;10.90;66.96;101368.21;109182;1250;71811;-59
2024/02/15 06:05:19;;;;;;;8.20;5.60;;;;;;;10.90;67.14;101366.63;109529;1251;59108;-56
2024/02/15 06:07:47;;;;;;;7.70;5.60;;;;;;;10.93;67.10;101362.95;109490;1251;60095;-57
2024/02/15 06:10:15;;;;;;;8.90;5.90;;;;;;;10.95;67.27;101361.89;109509;1251;74712;-56
2024/02/15 06:12:43;;;;;;;7.00;4.60;;;;;;;10.99;67.14;101356.80;109543;1251;71838;-59
2024/02/15 06:15:17;;;;;;;6.40;4.80;;;;;;;11.00;67.36;101355.23;109513;1253;72700;-58
2024/02/15 06:17:46;;;;;;;6.10;4.80;;;;;;;11.04;67.34;101349.60;109483;1251;61782;-58
2024/02/15 06:20:17;;;;;;;7.40;4.60;;;;;;;11.07;67.43;101349.43;109492;1251;59016;-58
2024/02/15 06:22:46;;;;;;;7.00;5.50;;;;;;;11.09;67.28;101352.06;109298;1251;75039;-58
2024/02/15 06:25:15;;;;;;;7.40;5.30;;;;;;;11.12;67.32;101352.59;109586;1251;71423;-58
2024/02/15 06:27:42;;;;;;;6.80;4.80;;;;;;;11.14;67.34;101350.12;109518;1251;71474;-58
2024/02/15 06:41:19;;;;;;;6.10;4.70;;;;;;;11.33;67.07;101341.33;109500;1251;72710;-58
2024/02/15 06:43:49;;;;;;;5.70;3.90;;;;;;;11.32;66.83;101340.27;109537;1251;59247;-59
2024/02/15 06:46:19;;;;;;;5.30;4.00;;;;;;;11.31;66.85;101351.17;109497;1251;59387;-57
2024/02/15 06:48:46;;;;;;;7.00;4.70;;;;;;;11.31;66.82;101351.34;109521;1251;73406;-56
2024/02/15 06:51:15;;;;;;;8.00;4.60;;;;;;;11.31;67.00;101349.42;109449;1251;72834;-56
2024/02/15 06:53:43;;;;;;;6.20;4.20;;;;;;;11.34;67.14;101352.40;109172;1251;73241;-57
2024/02/15 06:56:13;;;;;;;6.60;4.50;;;;;;;11.39;67.21;101357.48;109463;1251;60157;-56
2024/02/15 06:58:41;;;;;;;4.20;3.70;;;;;;;11.42;67.11;101359.41;109459;1251;58900;-56
2024/02/15 07:01:09;;;;;;;4.60;3.90;;;;;;;11.44;67.10;101358.35;109513;1250;73647;-56
2024/02/15 07:03:38;;;;;;;5.50;3.80;;;;;;;11.46;67.19;101358.36;109473;1251;72218;-60
2024/02/15 07:06:06;;;;;;;6.40;4.20;;;;;;;11.51;67.24;101357.81;109493;1249;71421;-60
2024/02/15 07:08:35;;;;;;;4.60;3.70;;;;;;;11.55;67.20;101357.28;109478;1251;61722;-60
2024/02/15 07:11:03;;;;;;;4.50;3.50;;;;;;;11.57;67.05;101354.98;109531;1251;60121;-60
2024/02/15 07:13:31;;;;;;;4.60;3.90;;;;;;;11.57;66.89;101362.70;109196;1251;74816;-57
2024/02/15 07:15:59;;;;;;;4.20;3.30;;;;;;;11.57;66.70;101368.34;109555;1251;72900;-58
2024/02/15 07:18:27;;;;;;;5.10;3.90;;;;;;;11.56;66.60;101370.45;109453;1251;71146;-61
2024/02/15 07:21:00;;;;;;;5.20;3.80;;;;;;;11.54;66.60;101371.16;109488;1250;60160;-61
2024/02/15 07:23:28;;;;;;;4.10;3.40;;;;;;;11.53;66.41;101371.51;109468;1251;60610;-60
2024/02/15 07:25:56;;;;;;;5.70;4.00;;;;;;;11.53;66.67;101379.41;109495;1251;73408;-61
2024/02/15 07:28:24;;;;;;;5.70;3.90;;;;;;;11.55;66.74;101381.86;109483;1251;72905;-61
2024/02/15 07:30:54;;;;;;;4.60;3.80;;;;;;;11.53;66.52;101377.30;109484;1253;72707;-61
2024/02/15 07:33:23;;;;;;;5.00;4.00;;;;;;;11.51;66.55;101376.77;109522;1251;60070;-60
2024/02/15 07:35:51;;;;;;;4.40;3.00;;;;;;;11.53;67.23;101369.92;109225;1251;60271;-59
2024/02/15 07:38:22;;;;;;;4.00;3.60;;;;;;;11.55;67.60;101371.32;109481;1251;74732;-59
2024/02/15 07:40:50;;;;;;;5.30;3.40;;;;;;;11.56;67.51;101370.96;109519;1251;72861;-61
2024/02/15 07:43:18;;;;;;;4.70;3.40;;;;;;;11.57;67.40;101369.22;109438;1251;72365;-59
2024/02/15 07:45:49;;;;;;;4.80;3.40;;;;;;;11.57;67.17;101368.52;109473;1251;60676;-57
2024/02/15 07:48:16;;;;;;;4.10;3.70;;;;;;;11.56;67.09;101367.27;109225;1254;61814;-59
2024/02/15 07:50:44;;;;;;;4.30;3.70;;;;;;;11.55;66.93;101373.79;109495;1254;73521;-59
2024/02/15 07:53:13;;;;;;;6.20;4.20;;;;;;;11.54;66.67;101371.52;109504;1251;72932;-60
2024/02/15 07:55:44;;;;;;;6.00;4.00;;;;;;;11.52;66.66;101376.25;109450;1251;72757;-60
2024/02/15 07:58:16;;;;;;;4.70;4.00;;;;;;;11.50;66.66;101382.05;109477;1251;59221;-60
2024/02/15 08:00:45;;;;;;;4.80;3.50;;;;;;;11.48;66.60;101380.31;109455;1251;60157;-59
2024/02/15 08:03:14;;;;;;;3.60;3.10;;;;;;;11.47;66.51;101384.00;109241;1251;74711;-59
2024/02/15 08:05:42;;;;;;;6.90;3.40;;;;;;;11.45;66.55;101390.32;109518;1251;72104;-58
2024/02/15 08:08:10;;;;;;;4.30;3.90;;;;;;;11.44;66.69;101395.24;109298;1251;72861;-59
2024/02/15 08:10:39;;;;;;;3.70;3.00;;;;;;;11.44;66.82;101391.55;109459;1253;59377;-60
2024/02/15 08:13:08;;;;;;;3.80;3.10;;;;;;;11.47;66.78;101396.28;109485;1251;59340;-58
2024/02/15 08:15:36;;;;;;;4.40;3.50;;;;;;;11.47;66.87;101396.46;109471;1251;74922;-59
2024/02/15 08:18:05;;;;;;;5.30;3.40;;;;;;;11.49;67.02;101394.35;109539;1249;72692;-60
2024/02/15 08:20:34;;;;;;;4.20;2.80;;;;;;;11.52;67.24;101396.45;109397;1251;71988;-60
2024/02/15 08:23:02;;;;;;;3.20;2.90;;;;;;;11.56;67.32;101393.98;109464;1251;59424;-60
2024/02/15 08:25:31;;;;;;;3.90;3.10;;;;;;;11.62;67.49;101393.80;109242;1251;60108;-60
2024/02/15 08:28:05;;;;;;;6.60;3.10;;;;;;;11.69;67.35;101390.27;109554;1255;74769;-58
2024/02/15 08:30:33;;;;;;;3.50;2.70;;;;;;;11.73;67.35;101392.02;109484;1251;71711;-56
2024/02/15 08:33:00;;;;;;;3.60;3.20;;;;;;;11.77;67.28;101393.42;109522;1252;71161;-57
2024/02/15 08:35:28;;;;;;;4.10;2.60;;;;;;;11.81;66.98;101397.62;109366;1251;60373;-59
2024/02/15 08:37:56;;;;;;;2.90;2.60;;;;;;;11.82;66.85;101397.63;109385;1251;60125;-58
2024/02/15 08:40:25;;;;;;;4.60;3.90;;;;;;;11.82;66.57;101391.12;109371;1251;74636;-59
2024/02/15 08:42:53;;;;;;;4.80;3.00;;;;;;;11.79;66.43;101387.61;109421;1251;73003;-59
2024/02/15 08:45:21;;;;;;;3.30;2.60;;;;;;;11.76;66.34;101385.33;109338;1251;72960;-57
2024/02/15 08:47:52;;;;;;;3.50;2.70;;;;;;;11.76;66.35;101387.27;109211;1252;59348;-57
2024/02/15 08:50:23;;;;;;;3.20;2.90;;;;;;;11.76;66.47;101382.69;109369;1251;60238;-59
2024/02/15 08:52:51;;;;;;;4.40;3.20;;;;;;;11.77;66.35;101385.52;109399;1250;74739;-58
2024/02/15 08:55:23;;;;;;;3.60;2.90;;;;;;;11.76;66.22;101390.09;109417;1251;72869;-63
2024/02/15 08:57:52;;;;;;;2.80;2.50;;;;;;;11.74;66.01;101395.38;109444;1251;72552;-62
2024/02/15 09:00:20;;;;;;;2.70;2.40;;;;;;;11.70;65.98;101394.33;109348;1251;60022;-61
2024/02/15 09:02:48;;;;;;;4.30;2.90;;;;;;;11.67;66.05;101396.25;109388;1251;58977;-63
2024/02/15 09:05:18;;;;;;;5.00;2.80;;;;;;;11.68;66.13;101395.37;109448;1251;72971;-60
2024/02/15 09:07:50;;;;;;;2.70;2.50;;;;;;;11.67;66.17;101392.75;109393;1250;73074;-61
2024/02/15 09:10:18;;;;;;;3.60;3.00;;;;;;;11.68;66.11;101389.22;109109;1251;73248;-62
2024/02/15 09:12:49;;;;;;;3.90;3.00;;;;;;;11.69;66.01;101390.45;109278;1253;61152;-63
2024/02/15 09:15:17;;;;;;;4.10;2.70;;;;;;;11.66;66.13;101388.69;109076;1251;59844;-62
2024/02/15 09:17:46;;;;;;;2.80;2.50;;;;;;;11.67;66.12;101392.92;109085;1251;73724;-64
2024/02/15 09:20:18;;;;;;;3.60;3.10;;;;;;;11.68;66.20;101388.69;109371;1251;71527;-64
2024/02/15 09:22:50;;;;;;;3.70;2.50;;;;;;;11.70;66.13;101385.88;109174;1253;72523;-64
2024/02/15 09:25:18;;;;;;;2.30;2.10;;;;;;;11.70;65.99;101380.79;109199;1253;59302;-64
2024/02/15 09:27:46;;;;;;;3.00;2.40;;;;;;;11.68;66.11;101377.63;109261;1253;59211;-64
2024/02/15 09:30:15;;;;;;;3.70;2.80;;;;;;;11.70;66.18;101371.13;108878;1253;73543;-63
2024/02/15 09:32:43;;;;;;;4.70;2.80;;;;;;;11.71;66.12;101371.47;109145;1253;71762;-63
2024/02/15 09:35:12;;;;;;;3.70;2.80;;;;;;;11.72;66.18;101377.80;108797;1253;72403;-63
2024/02/15 09:37:45;;;;;;;3.10;2.60;;;;;;;11.72;66.13;101382.89;108917;1253;61817;-61
2024/02/15 09:40:13;;;;;;;2.70;2.50;;;;;;;11.75;66.30;101382.89;109083;1254;60157;-64
2024/02/15 09:42:40;;;;;;;2.60;2.30;;;;;;;11.81;66.43;101387.09;109163;1252;74426;-63
2024/02/15 09:45:10;;;;;;;3.40;2.70;;;;;;;11.87;66.54;101386.36;109094;1253;71444;-63
2024/02/15 09:47:42;;;;;;;3.10;2.50;;;;;;;11.92;66.46;101382.66;109177;1253;72767;-62
2024/02/15 09:50:11;;;;;;;3.20;2.50;;;;;;;11.96;66.25;101380.56;108967;1254;59862;-62
2024/02/15 09:52:52;;;;;;;4.30;2.70;;;;;;;11.99;66.18;101375.10;109261;1254;59327;-59
2024/02/15 09:55:22;;;;;;;8.60;2.90;;;;;;;12.10;70.22;101374.88;109231;1253;74387;-59
2024/02/15 09:57:52;;;;;;;11.50;3.30;;;;;;;12.46;73.30;101375.07;108959;1253;73729;-54
2024/02/15 10:00:20;;;;;;;7.80;3.10;;;;;;;12.81;73.82;101371.84;109231;1257;72796;-55
2024/02/15 10:02:57;;;;;;;10.70;3.00;;;;;;;12.94;72.86;101367.16;109050;1253;59228;-55
2024/02/15 10:05:25;;;;;;;5.90;2.70;;;;;;;12.97;72.18;101364.48;109225;1254;59028;-60
2024/02/15 10:07:54;;;;;;;5.60;2.60;;;;;;;12.94;70.93;101363.98;109214;1253;72688;-61
2024/02/15 10:10:22;;;;;;;6.20;3.00;;;;;;;12.87;70.01;101360.88;109236;1254;73191;-56
2024/02/15 10:12:56;;;;;;;8.90;2.50;;;;;;;12.84;70.57;101362.48;109222;1253;72067;-57
2024/02/15 10:15:31;;;;;;;12.00;3.70;;;;;;;12.84;70.01;101368.82;109144;1255;59813;-54
2024/02/15 10:18:02;;;;;;;6.60;2.60;;;;;;;12.87;70.58;101371.10;109271;1254;59387;-53
2024/02/15 10:20:31;;;;;;;6.00;2.60;;;;;;;12.88;69.89;101368.98;109246;1254;75091;-54
2024/02/15 10:22:58;;;;;;;4.50;2.50;;;;;;;12.85;69.43;101369.00;109212;1252;72743;-55
2024/02/15 10:25:27;;;;;;;4.60;2.60;;;;;;;12.82;69.02;101369.52;109217;1253;72130;-56
2024/02/15 10:28:07;;;;;;;5.50;3.30;;;;;;;12.81;68.62;101376.23;109205;1254;60513;-57
2024/02/15 10:30:39;;;;;;;4.10;2.70;;;;;;;12.83;68.48;101376.23;109250;1254;60043;-56
2024/02/15 10:33:10;;;;;;;5.30;3.00;;;;;;;12.87;68.18;101378.85;109314;1253;73550;-56
2024/02/15 10:35:37;;;;;;;4.30;3.20;;;;;;;12.90;67.87;101376.88;109204;1254;72395;-55
2024/02/15 10:38:09;;;;;;;3.40;2.50;;;;;;;12.93;67.51;101377.56;109052;1254;71894;-55
2024/02/15 10:40:37;;;;;;;4.40;3.30;;;;;;;12.94;66.94;101375.44;109319;1253;59100;-55
2024/02/15 10:43:05;;;;;;;3.70;2.60;;;;;;;12.92;66.34;101368.08;109241;1258;59329;-56
2024/02/15 10:45:36;;;;;;;4.10;3.10;;;;;;;12.88;66.12;101370.91;109237;1254;74712;-56
2024/02/15 10:48:10;;;;;;;3.30;2.90;;;;;;;12.84;65.91;101371.64;109247;1254;72960;-56
2024/02/15 10:50:42;;;;;;;3.80;3.20;;;;;;;12.77;65.50;101369.77;108949;1254;72190;-56
2024/02/15 10:53:32;;;;;;;3.70;2.80;;;;;;;12.70;65.08;101375.79;109187;1254;59025;-60
2024/02/15 10:56:23;;;;;;;3.70;2.80;;;;;;;12.64;65.23;101381.29;109269;1253;58936;-54
2024/02/15 10:58:53;;;;;;;5.60;3.10;;;;;;;12.61;65.51;101380.24;108977;1253;74638;-55
2024/02/15 11:01:22;;;;;;;4.60;2.70;;;;;;;12.62;65.84;101378.14;108981;1253;74815;-56
2024/02/15 11:03:56;;;;;;;3.20;2.50;;;;;;;12.60;65.48;101378.52;109176;1253;73284;-56
2024/02/15 11:06:24;;;;;;;4.50;2.80;;;;;;;12.54;65.38;101380.29;109098;1253;59947;-54
2024/02/15 11:08:52;;;;;;;4.00;2.90;;;;;;;12.50;65.49;101378.02;109281;1253;59144;-55
2024/02/15 11:11:21;;;;;;;4.20;2.80;;;;;;;12.49;65.46;101377.86;108851;1253;485533;-55
2024/02/15 11:13:49;;;;;;;4.50;3.60;;;;;;;12.49;65.57;101378.39;109320;1253;72591;-54
2024/02/15 11:16:43;;;;;;;3.20;2.50;;;;;;;12.51;65.52;101380.14;109490;1253;70824;-54
2024/02/15 11:19:39;;;;;;;3.30;2.60;;;;;;;12.52;65.76;101379.96;108804;1259;59203;-56
2024/02/15 11:22:13;;;;;;;4.20;2.90;;;;;;;12.53;65.47;101375.02;108618;1260;59807;-59
2024/02/15 11:24:48;;;;;;;6.50;3.20;;;;;;;12.50;65.39;101383.31;108848;1260;75180;-59
2024/02/15 11:27:29;;;;;;;4.30;2.80;;;;;;;12.48;65.38;101382.80;108851;1259;73168;-57
2024/02/15 11:30:09;;;;;;;3.80;2.60;;;;;;;12.46;65.43;101379.46;108660;1260;73002;-57
2024/02/15 11:32:47;;;;;;;3.90;3.20;;;;;;;12.44;65.40;101384.58;108823;1260;60754;-59
2024/02/15 11:35:25;;;;;;;3.10;2.60;;;;;;;12.47;65.76;101388.08;108863;1259;60410;-59